Time;durP1;ratioP1;P1;durP2;ratioP2;P2;SDS_P1;SDS_P2;PMS_P1;PMS_P2;Temp;Humidity;BMP_temperature;BMP_pressure;BME280_temperature;BME280_humidity;BME280_pressure;Samples;Min_cycle;Max_cycle;Signal;HPM_P1;HPM_P2
2022/03/15 00:01:14;;;;;;;6.35;2.00;;;;;;;;;;5053945;28;20028;-57
2022/03/15 00:03:40;;;;;;;8.90;2.28;;;;;;;;;;5058407;28;20032;-58
2022/03/15 00:06:05;;;;;;;3.75;2.30;;;;;;;;;;5062912;28;20032;-57
2022/03/15 00:08:32;;;;;;;3.63;2.00;;;;;;;;;;5055307;28;20021;-58
2022/03/15 00:11:05;;;;;;;4.45;2.13;;;;;;;;;;5061317;28;20036;-58
2022/03/15 00:13:32;;;;;;;5.00;2.20;;;;;;;;;;5065026;28;20067;-58
2022/03/15 00:16:00;;;;;;;6.13;2.28;;;;;;;;;;5060913;28;20456;-56
2022/03/15 00:18:27;;;;;;;9.55;2.70;;;;;;;;;;5060723;28;20052;-57
2022/03/15 00:20:53;;;;;;;5.47;2.53;;;;;;;;;;5056031;28;20116;-57
2022/03/15 00:23:19;;;;;;;5.68;2.08;;;;;;;;;;5059063;28;20532;-57
2022/03/15 00:25:44;;;;;;;8.02;2.40;;;;;;;;;;5058046;28;20483;-57
2022/03/15 00:28:10;;;;;;;5.38;2.03;;;;;;;;;;5060824;28;20068;-57
2022/03/15 00:30:35;;;;;;;5.28;2.30;;;;;;;;;;5059383;28;20037;-57
2022/03/15 00:33:01;;;;;;;6.68;2.42;;;;;;;;;;5058961;28;20055;-58
2022/03/15 00:35:27;;;;;;;3.45;2.28;;;;;;;;;;5060165;28;20357;-58
2022/03/15 00:37:55;;;;;;;6.30;2.50;;;;;;;;;;5060024;28;20028;-57
2022/03/15 00:40:22;;;;;;;5.50;2.10;;;;;;;;;;5064326;28;20028;-57
2022/03/15 00:42:52;;;;;;;8.35;2.63;;;;;;;;;;5063823;28;20061;-57
2022/03/15 00:45:22;;;;;;;4.75;2.35;;;;;;;;;;5056426;28;20476;-58
2022/03/15 00:47:48;;;;;;;6.20;2.72;;;;;;;;;;5057773;28;20139;-57
2022/03/15 00:50:14;;;;;;;3.38;2.60;;;;;;;;;;5056191;28;20423;-58
2022/03/15 00:52:39;;;;;;;8.23;2.10;;;;;;;;;;5060694;28;20115;-58
2022/03/15 00:55:05;;;;;;;6.03;2.53;;;;;;;;;;5061673;28;20064;-58
2022/03/15 00:57:32;;;;;;;5.00;2.20;;;;;;;;;;5064244;28;20107;-58
2022/03/15 00:59:57;;;;;;;6.45;2.40;;;;;;;;;;5063111;28;20025;-58
2022/03/15 01:02:23;;;;;;;7.15;3.08;;;;;;;;;;5056263;28;20027;-57
2022/03/15 01:04:49;;;;;;;3.60;2.13;;;;;;;;;;5062465;28;20028;-58
2022/03/15 01:07:15;;;;;;;6.70;2.33;;;;;;;;;;5062892;28;20025;-58
2022/03/15 01:09:40;;;;;;;6.50;3.25;;;;;;;;;;5055373;28;20082;-57
2022/03/15 01:12:06;;;;;;;4.30;2.05;;;;;;;;;;5061061;28;20144;-57
2022/03/15 01:14:32;;;;;;;3.88;2.30;;;;;;;;;;5062325;28;20151;-57
2022/03/15 01:16:58;;;;;;;4.38;2.50;;;;;;;;;;5067827;28;20546;-58
2022/03/15 01:19:23;;;;;;;5.53;2.80;;;;;;;;;;5065850;28;20028;-58
2022/03/15 01:21:51;;;;;;;6.13;2.60;;;;;;;;;;5063714;28;20078;-57
2022/03/15 01:24:16;;;;;;;8.93;4.80;;;;;;;;;;5065383;28;20028;-57
2022/03/15 01:26:42;;;;;;;9.93;4.95;;;;;;;;;;5060600;28;20408;-58
2022/03/15 01:29:07;;;;;;;19.98;7.13;;;;;;;;;;5060577;28;20403;-58
2022/03/15 01:31:34;;;;;;;13.35;5.43;;;;;;;;;;5066008;28;20074;-58
2022/03/15 01:33:59;;;;;;;15.43;5.30;;;;;;;;;;5058565;28;20395;-58
2022/03/15 01:36:25;;;;;;;13.13;4.80;;;;;;;;;;5062469;28;20032;-57
2022/03/15 01:38:52;;;;;;;11.35;4.10;;;;;;;;;;5067799;28;20028;-58
2022/03/15 01:41:18;;;;;;;12.13;3.92;;;;;;;;;;5057962;28;20037;-59
2022/03/15 01:43:46;;;;;;;5.38;2.88;;;;;;;;;;5052877;28;20029;-58
2022/03/15 01:46:12;;;;;;;8.15;3.38;;;;;;;;;;5065921;28;20020;-58
2022/03/15 01:48:37;;;;;;;7.28;2.75;;;;;;;;;;5056156;28;20626;-58
2022/03/15 01:51:03;;;;;;;6.57;3.05;;;;;;;;;;5060615;28;20033;-58
2022/03/15 01:53:31;;;;;;;7.93;2.92;;;;;;;;;;5061985;28;20021;-57
2022/03/15 01:55:57;;;;;;;8.73;2.90;;;;;;;;;;5064632;28;20032;-58
2022/03/15 01:58:22;;;;;;;7.80;3.13;;;;;;;;;;5058730;28;20033;-58
2022/03/15 02:00:48;;;;;;;9.15;2.85;;;;;;;;;;5059615;28;20084;-56
2022/03/15 02:03:13;;;;;;;7.30;2.75;;;;;;;;;;5062142;28;20215;-58
2022/03/15 02:05:39;;;;;;;4.35;2.47;;;;;;;;;;5062426;28;20031;-57
2022/03/15 02:08:13;;;;;;;8.45;2.58;;;;;;;;;;5061606;28;20119;-57
2022/03/15 02:10:38;;;;;;;3.55;2.05;;;;;;;;;;5060785;28;20029;-56
2022/03/15 02:13:04;;;;;;;5.95;2.40;;;;;;;;;;5062708;28;20024;-58
2022/03/15 02:15:29;;;;;;;3.45;1.95;;;;;;;;;;5057969;28;20037;-57
2022/03/15 02:17:56;;;;;;;3.53;2.22;;;;;;;;;;5066833;28;20042;-59
2022/03/15 02:20:22;;;;;;;6.90;2.60;;;;;;;;;;5057824;28;20442;-58
2022/03/15 02:22:47;;;;;;;5.07;2.60;;;;;;;;;;5056500;28;20043;-57
2022/03/15 02:25:13;;;;;;;6.38;2.47;;;;;;;;;;5062929;28;20024;-57
2022/03/15 02:27:39;;;;;;;5.57;2.65;;;;;;;;;;5061210;28;20429;-58
2022/03/15 02:30:06;;;;;;;12.32;3.00;;;;;;;;;;5061708;28;20118;-58
2022/03/15 02:32:32;;;;;;;7.65;2.20;;;;;;;;;;5057932;28;20040;-58
2022/03/15 02:34:57;;;;;;;6.50;2.92;;;;;;;;;;5065245;28;20029;-58
2022/03/15 02:37:24;;;;;;;3.78;2.08;;;;;;;;;;5061963;28;20037;-58
2022/03/15 02:39:50;;;;;;;4.88;2.10;;;;;;;;;;5051731;28;20482;-57
2022/03/15 02:42:17;;;;;;;5.72;2.45;;;;;;;;;;5060121;28;20107;-58
2022/03/15 02:44:42;;;;;;;7.45;2.42;;;;;;;;;;5053065;28;20029;-58
2022/03/15 02:47:07;;;;;;;5.05;2.08;;;;;;;;;;5062571;28;20116;-57
2022/03/15 02:49:33;;;;;;;5.82;2.67;;;;;;;;;;5059953;28;20070;-57
2022/03/15 02:51:58;;;;;;;6.28;2.60;;;;;;;;;;5062738;28;20071;-58
2022/03/15 02:54:24;;;;;;;5.95;2.60;;;;;;;;;;5056012;28;20354;-58
2022/03/15 02:56:50;;;;;;;5.57;2.53;;;;;;;;;;5063151;28;20492;-57
2022/03/15 02:59:16;;;;;;;6.15;2.15;;;;;;;;;;5057744;28;20024;-58
2022/03/15 03:01:46;;;;;;;6.90;2.40;;;;;;;;;;5059157;28;20039;-57
2022/03/15 03:04:12;;;;;;;;;;;;;;;;;;5058242;28;20094;-57
2022/03/15 03:06:38;;;;;;;6.00;2.40;;;;;;;;;;5058184;28;19925;-57
2022/03/15 03:09:04;;;;;;;4.28;2.40;;;;;;;;;;5056835;28;20035;-57
2022/03/15 03:11:30;;;;;;;6.32;2.55;;;;;;;;;;5060485;28;20025;-58
2022/03/15 03:14:00;;;;;;;10.20;3.67;;;;;;;;;;5055045;28;20529;-58
2022/03/15 03:16:27;;;;;;;8.25;3.80;;;;;;;;;;5058308;28;20555;-59
2022/03/15 03:18:57;;;;;;;21.75;9.60;;;;;;;;;;5054128;28;20032;-58
2022/03/15 03:21:27;;;;;;;15.98;5.95;;;;;;;;;;5050524;28;20020;-58
2022/03/15 03:23:53;;;;;;;8.63;4.15;;;;;;;;;;5055043;28;20461;-58
2022/03/15 03:26:23;;;;;;;9.27;4.85;;;;;;;;;;5059880;28;20396;-57
2022/03/15 03:28:49;;;;;;;;;;;;;;;;;;5058017;28;20726;-57
2022/03/15 03:31:15;;;;;;;12.43;6.47;;;;;;;;;;5059167;28;19912;-57
2022/03/15 03:33:41;;;;;;;11.13;5.53;;;;;;;;;;5053821;28;20507;-57
2022/03/15 03:36:07;;;;;;;8.98;3.88;;;;;;;;;;5063487;28;20025;-59
2022/03/15 03:38:32;;;;;;;9.38;3.65;;;;;;;;;;5061435;28;20101;-57
2022/03/15 03:40:58;;;;;;;7.80;4.10;;;;;;;;;;5061514;28;20385;-57
2022/03/15 03:43:23;;;;;;;7.15;3.35;;;;;;;;;;5060073;28;20036;-57
2022/03/15 03:45:49;;;;;;;7.35;3.17;;;;;;;;;;5060235;28;20729;-58
2022/03/15 03:48:14;;;;;;;4.35;2.78;;;;;;;;;;5053637;28;20514;-57
2022/03/15 03:50:40;;;;;;;10.00;2.90;;;;;;;;;;5060550;28;20123;-57
2022/03/15 03:53:06;;;;;;;6.18;2.70;;;;;;;;;;5061137;28;20036;-57
2022/03/15 03:55:32;;;;;;;4.65;2.40;;;;;;;;;;5060850;28;20033;-57
2022/03/15 03:57:58;;;;;;;7.40;3.15;;;;;;;;;;5054765;28;20036;-57
2022/03/15 04:00:24;;;;;;;4.47;2.72;;;;;;;;;;5059420;28;20479;-58
2022/03/15 04:02:50;;;;;;;4.90;2.47;;;;;;;;;;5063765;28;20421;-58
2022/03/15 04:05:16;;;;;;;7.97;3.05;;;;;;;;;;5056711;28;20060;-58
2022/03/15 04:07:42;;;;;;;5.22;2.55;;;;;;;;;;5058512;28;20060;-57
2022/03/15 04:10:08;;;;;;;8.60;3.97;;;;;;;;;;5055792;28;20028;-57
2022/03/15 04:12:35;;;;;;;11.13;5.18;;;;;;;;;;5062724;28;20161;-57
2022/03/15 04:15:03;;;;;;;10.57;5.03;;;;;;;;;;5063155;28;20031;-57
2022/03/15 04:17:29;;;;;;;10.23;4.45;;;;;;;;;;5055928;28;20064;-58
2022/03/15 04:19:54;;;;;;;9.45;3.85;;;;;;;;;;5056582;28;20071;-57
2022/03/15 04:22:21;;;;;;;7.20;4.40;;;;;;;;;;5056441;28;20437;-57
2022/03/15 04:24:46;;;;;;;9.27;3.88;;;;;;;;;;5054033;28;20025;-57
2022/03/15 04:27:12;;;;;;;6.80;4.00;;;;;;;;;;5057201;28;20043;-57
2022/03/15 04:29:37;;;;;;;7.40;3.85;;;;;;;;;;5056050;28;20024;-57
2022/03/15 04:32:04;;;;;;;12.52;5.07;;;;;;;;;;5063012;28;20514;-57
2022/03/15 04:34:30;;;;;;;8.68;4.70;;;;;;;;;;5056627;28;20095;-57
2022/03/15 04:36:57;;;;;;;14.40;4.95;;;;;;;;;;5062735;28;20027;-57
2022/03/15 04:39:22;;;;;;;18.33;6.20;;;;;;;;;;5051876;28;20021;-57
2022/03/15 04:41:48;;;;;;;22.85;6.68;;;;;;;;;;5056672;28;20032;-57
2022/03/15 04:44:14;;;;;;;20.25;6.68;;;;;;;;;;5053174;28;20033;-58
2022/03/15 04:46:43;;;;;;;19.05;6.07;;;;;;;;;;5051666;28;20033;-57
2022/03/15 04:49:08;;;;;;;12.80;5.07;;;;;;;;;;5055061;28;20033;-57
2022/03/15 04:51:34;;;;;;;13.45;4.90;;;;;;;;;;5062968;28;20035;-57
2022/03/15 04:54:00;;;;;;;10.57;5.10;;;;;;;;;;5066022;28;20035;-57
2022/03/15 04:56:25;;;;;;;11.55;4.70;;;;;;;;;;5063891;28;20033;-57
2022/03/15 04:58:51;;;;;;;15.20;5.47;;;;;;;;;;5054630;28;20040;-57
2022/03/15 05:01:16;;;;;;;14.00;5.20;;;;;;;;;;5062670;28;20024;-58
2022/03/15 05:03:42;;;;;;;19.77;7.90;;;;;;;;;;5061174;28;20052;-58
2022/03/15 05:06:07;;;;;;;21.77;8.90;;;;;;;;;;5063611;28;20024;-58
2022/03/15 05:08:33;;;;;;;24.25;9.40;;;;;;;;;;5057827;28;20052;-58
2022/03/15 05:11:07;;;;;;;30.23;10.85;;;;;;;;;;5059469;28;20024;-59
2022/03/15 05:13:45;;;;;;;25.38;9.57;;;;;;;;;;5057136;28;20032;-58
2022/03/15 05:16:15;;;;;;;22.70;9.85;;;;;;;;;;5063709;28;20459;-57
2022/03/15 05:18:41;;;;;;;18.73;8.45;;;;;;;;;;5058944;28;20063;-57
2022/03/15 05:21:07;;;;;;;11.63;6.15;;;;;;;;;;5055656;28;20024;-58
2022/03/15 05:23:34;;;;;;;10.70;4.85;;;;;;;;;;5059136;28;20051;-57
2022/03/15 05:26:00;;;;;;;8.43;4.85;;;;;;;;;;5055478;28;20021;-57
2022/03/15 05:28:25;;;;;;;10.68;4.40;;;;;;;;;;5066210;28;20479;-57
2022/03/15 05:30:51;;;;;;;8.48;4.20;;;;;;;;;;5056711;28;20557;-57
2022/03/15 05:33:16;;;;;;;7.55;3.95;;;;;;;;;;5060446;28;20105;-57
2022/03/15 05:35:42;;;;;;;10.98;4.53;;;;;;;;;;5057562;28;20033;-57
2022/03/15 05:38:08;;;;;;;12.82;5.28;;;;;;;;;;5054830;28;20071;-57
2022/03/15 05:40:34;;;;;;;11.20;5.15;;;;;;;;;;5062254;28;20028;-57
2022/03/15 05:42:59;;;;;;;10.50;5.25;;;;;;;;;;5058736;28;20079;-57
2022/03/15 05:45:25;;;;;;;11.32;5.22;;;;;;;;;;5053774;28;20028;-57
2022/03/15 05:47:52;;;;;;;12.88;4.30;;;;;;;;;;5064610;28;20700;-57
2022/03/15 05:50:18;;;;;;;10.80;4.55;;;;;;;;;;5058419;28;20060;-57
2022/03/15 05:52:43;;;;;;;11.57;5.53;;;;;;;;;;5065857;28;20535;-57
2022/03/15 05:55:11;;;;;;;15.55;5.72;;;;;;;;;;5063113;28;20024;-59
2022/03/15 05:57:37;;;;;;;10.82;6.45;;;;;;;;;;5055281;28;20044;-57
2022/03/15 06:00:04;;;;;;;18.08;8.77;;;;;;;;;;5053466;28;20044;-57
2022/03/15 06:02:30;;;;;;;23.17;9.85;;;;;;;;;;5064130;28;20028;-57
2022/03/15 06:04:55;;;;;;;16.00;6.63;;;;;;;;;;5060301;28;20040;-58
2022/03/15 06:07:21;;;;;;;13.52;5.70;;;;;;;;;;5052302;28;20076;-58
2022/03/15 06:09:46;;;;;;;17.30;6.15;;;;;;;;;;5059383;28;20021;-58
2022/03/15 06:12:11;;;;;;;15.10;6.32;;;;;;;;;;5064533;28;20054;-59
2022/03/15 06:14:37;;;;;;;11.60;5.35;;;;;;;;;;5063466;28;20039;-59
2022/03/15 06:17:04;;;;;;;16.70;7.80;;;;;;;;;;5054029;28;20044;-59
2022/03/15 06:19:30;;;;;;;21.45;9.63;;;;;;;;;;5058550;28;20095;-59
2022/03/15 06:21:55;;;;;;;16.13;9.77;;;;;;;;;;5065058;28;20054;-59
2022/03/15 06:24:21;;;;;;;23.13;12.50;;;;;;;;;;5068738;28;20029;-59
2022/03/15 06:26:46;;;;;;;19.58;12.55;;;;;;;;;;5066959;28;20024;-59
2022/03/15 06:29:12;;;;;;;21.08;12.20;;;;;;;;;;5060786;28;20024;-59
2022/03/15 06:31:38;;;;;;;26.38;13.57;;;;;;;;;;5059936;28;20439;-59
2022/03/15 06:34:06;;;;;;;24.45;13.65;;;;;;;;;;5056527;28;20020;-59
2022/03/15 06:36:34;;;;;;;24.13;13.98;;;;;;;;;;5062986;28;20028;-59
2022/03/15 06:38:59;;;;;;;22.90;11.20;;;;;;;;;;5052366;28;20446;-59
2022/03/15 06:41:25;;;;;;;19.38;11.52;;;;;;;;;;5045717;28;20029;-56
2022/03/15 06:43:51;;;;;;;24.17;12.27;;;;;;;;;;5056017;28;20042;-57
2022/03/15 06:46:16;;;;;;;24.35;13.13;;;;;;;;;;5056397;28;20078;-57
2022/03/15 06:48:42;;;;;;;25.40;13.25;;;;;;;;;;5064254;28;20417;-56
2022/03/15 06:51:08;;;;;;;24.98;14.10;;;;;;;;;;5056109;28;20081;-59
2022/03/15 06:53:33;;;;;;;25.25;13.95;;;;;;;;;;5063097;28;20472;-59
2022/03/15 06:55:59;;;;;;;19.70;11.82;;;;;;;;;;5061240;28;20113;-58
2022/03/15 06:58:24;;;;;;;24.80;11.95;;;;;;;;;;5060857;28;20473;-59
2022/03/15 07:00:50;;;;;;;19.85;10.65;;;;;;;;;;5058969;28;20045;-58
2022/03/15 07:03:15;;;;;;;18.25;9.93;;;;;;;;;;5061189;28;20028;-56
2022/03/15 07:05:41;;;;;;;45.75;14.50;;;;;;;;;;5054893;28;20064;-59
2022/03/15 07:08:07;;;;;;;22.92;10.95;;;;;;;;;;5056937;28;20028;-59
2022/03/15 07:10:34;;;;;;;16.23;8.30;;;;;;;;;;5061548;28;20024;-58
2022/03/15 07:13:00;;;;;;;16.10;6.93;;;;;;;;;;5061318;28;20484;-59
2022/03/15 07:15:26;;;;;;;14.77;7.90;;;;;;;;;;5057037;28;20044;-58
2022/03/15 07:17:53;;;;;;;13.00;6.82;;;;;;;;;;5061440;28;20052;-59
2022/03/15 07:20:19;;;;;;;17.08;8.13;;;;;;;;;;5051225;28;20033;-59
2022/03/15 07:22:44;;;;;;;17.08;7.90;;;;;;;;;;5051966;28;20373;-59
2022/03/15 07:25:10;;;;;;;16.55;8.20;;;;;;;;;;5063216;28;20020;-59
2022/03/15 07:27:36;;;;;;;15.27;9.25;;;;;;;;;;5060894;28;20499;-59
2022/03/15 07:30:02;;;;;;;16.13;9.02;;;;;;;;;;5054723;28;20066;-59
2022/03/15 07:32:28;;;;;;;15.63;7.70;;;;;;;;;;5065667;28;20376;-59
2022/03/15 07:34:53;;;;;;;19.50;8.98;;;;;;;;;;5063044;28;20071;-59
2022/03/15 07:37:19;;;;;;;20.08;10.02;;;;;;;;;;5053677;28;20032;-59
2022/03/15 07:39:45;;;;;;;27.70;12.85;;;;;;;;;;5048823;28;20036;-59
2022/03/15 07:42:11;;;;;;;30.55;15.27;;;;;;;;;;5051789;28;20345;-59
2022/03/15 07:44:37;;;;;;;39.85;17.75;;;;;;;;;;5048791;28;20032;-59
2022/03/15 07:47:03;;;;;;;43.13;18.98;;;;;;;;;;5056056;28;20464;-59
2022/03/15 07:49:28;;;;;;;48.00;20.27;;;;;;;;;;5058097;28;20029;-59
2022/03/15 07:51:54;;;;;;;43.70;21.17;;;;;;;;;;5059802;28;20033;-59
2022/03/15 07:54:20;;;;;;;45.72;22.98;;;;;;;;;;5063018;28;20032;-59
2022/03/15 07:56:45;;;;;;;49.40;23.13;;;;;;;;;;5055200;28;20111;-59
2022/03/15 07:59:11;;;;;;;42.70;20.35;;;;;;;;;;5057097;28;20036;-59
2022/03/15 08:01:36;;;;;;;38.00;18.73;;;;;;;;;;5059341;28;20032;-59
2022/03/15 08:04:02;;;;;;;34.42;16.70;;;;;;;;;;5063781;28;20040;-59
2022/03/15 08:06:27;;;;;;;30.77;14.77;;;;;;;;;;5059893;28;20020;-59
2022/03/15 08:08:57;;;;;;;32.95;14.40;;;;;;;;;;5060310;28;20051;-59
2022/03/15 08:11:25;;;;;;;28.08;13.65;;;;;;;;;;5056390;28;20029;-60
2022/03/15 08:13:53;;;;;;;22.30;12.95;;;;;;;;;;5054087;28;20515;-58
2022/03/15 08:16:19;;;;;;;24.73;12.88;;;;;;;;;;5062775;28;20032;-58
2022/03/15 08:18:44;;;;;;;21.45;12.40;;;;;;;;;;5055242;28;20044;-58
2022/03/15 08:21:10;;;;;;;18.70;11.05;;;;;;;;;;5061494;28;20025;-58
2022/03/15 08:23:36;;;;;;;21.23;11.68;;;;;;;;;;5058476;28;20043;-58
2022/03/15 08:26:02;;;;;;;21.95;10.32;;;;;;;;;;5065443;28;20017;-58
2022/03/15 08:28:27;;;;;;;20.13;10.70;;;;;;;;;;5063571;28;20420;-58
2022/03/15 08:30:55;;;;;;;21.80;11.32;;;;;;;;;;5060049;28;20077;-59
2022/03/15 08:33:21;;;;;;;22.15;11.57;;;;;;;;;;5059346;28;20061;-59
2022/03/15 08:35:47;;;;;;;22.65;11.13;;;;;;;;;;5058461;28;20037;-59
2022/03/15 08:38:12;;;;;;;22.08;10.77;;;;;;;;;;5060986;28;20025;-59
2022/03/15 08:40:38;;;;;;;17.08;9.98;;;;;;;;;;5062055;28;20464;-60
2022/03/15 08:43:04;;;;;;;21.40;11.88;;;;;;;;;;5058428;28;20024;-59
2022/03/15 08:45:30;;;;;;;21.73;11.57;;;;;;;;;;5063842;28;20029;-59
2022/03/15 08:47:56;;;;;;;23.05;11.52;;;;;;;;;;5057929;28;20082;-59
2022/03/15 08:50:21;;;;;;;26.13;13.75;;;;;;;;;;5065031;28;20504;-60
2022/03/15 08:52:48;;;;;;;24.88;11.98;;;;;;;;;;5055875;28;20029;-59
2022/03/15 08:55:13;;;;;;;25.58;13.35;;;;;;;;;;5066154;28;20062;-59
2022/03/15 08:57:39;;;;;;;18.08;11.00;;;;;;;;;;5059926;28;20024;-59
2022/03/15 09:00:06;;;;;;;23.33;12.68;;;;;;;;;;5056620;28;20033;-60
2022/03/15 09:02:31;;;;;;;23.10;13.57;;;;;;;;;;5064049;28;20041;-60
2022/03/15 09:04:57;;;;;;;25.02;13.82;;;;;;;;;;5066212;28;20032;-59
2022/03/15 09:07:22;;;;;;;31.30;17.35;;;;;;;;;;5063639;28;20063;-60
2022/03/15 09:09:48;;;;;;;31.75;15.45;;;;;;;;;;5063030;28;20028;-60
2022/03/15 09:12:14;;;;;;;34.22;16.33;;;;;;;;;;5064635;28;20251;-60
2022/03/15 09:14:39;;;;;;;31.92;17.05;;;;;;;;;;5054517;28;20067;-59
2022/03/15 09:17:06;;;;;;;34.35;15.50;;;;;;;;;;5059852;28;20024;-59
2022/03/15 09:19:32;;;;;;;30.25;15.23;;;;;;;;;;5065398;28;20056;-59
2022/03/15 09:21:57;;;;;;;29.95;15.45;;;;;;;;;;5066247;28;20078;-59
2022/03/15 09:24:23;;;;;;;27.67;14.50;;;;;;;;;;5061227;28;20028;-59
2022/03/15 09:26:48;;;;;;;23.92;14.18;;;;;;;;;;5057001;28;20025;-58
2022/03/15 09:29:14;;;;;;;24.75;12.85;;;;;;;;;;5057237;28;20115;-58
2022/03/15 09:31:39;;;;;;;24.08;13.13;;;;;;;;;;5057759;28;20094;-58
2022/03/15 09:34:05;;;;;;;27.55;15.32;;;;;;;;;;5058089;28;20167;-58
2022/03/15 09:36:31;;;;;;;31.23;14.45;;;;;;;;;;5061798;28;20029;-58
2022/03/15 09:38:57;;;;;;;25.95;14.50;;;;;;;;;;5058082;28;20035;-59
2022/03/15 09:41:26;;;;;;;34.33;15.80;;;;;;;;;;5060062;28;20084;-58
2022/03/15 09:43:53;;;;;;;34.55;16.52;;;;;;;;;;5062370;28;20496;-58
2022/03/15 09:46:21;;;;;;;38.60;18.38;;;;;;;;;;5056518;28;20086;-59
2022/03/15 09:48:51;;;;;;;35.45;18.50;;;;;;;;;;5056151;28;20085;-59
2022/03/15 09:51:17;;;;;;;22.88;10.00;;;;;;;;;;5054338;28;20024;-59
2022/03/15 09:53:44;;;;;;;17.27;9.73;;;;;;;;;;5052260;28;20134;-59
2022/03/15 09:56:11;;;;;;;23.85;11.73;;;;;;;;;;5056648;28;20168;-59
2022/03/15 09:58:37;;;;;;;18.33;10.93;;;;;;;;;;5054725;28;20066;-59
2022/03/15 10:01:02;;;;;;;21.77;12.13;;;;;;;;;;5056405;28;20414;-59
2022/03/15 10:03:29;;;;;;;22.13;12.07;;;;;;;;;;5056056;28;20035;-59
2022/03/15 10:05:55;;;;;;;21.83;12.35;;;;;;;;;;5059870;28;20024;-59
2022/03/15 10:08:20;;;;;;;23.88;12.20;;;;;;;;;;5048148;28;20048;-59
2022/03/15 10:10:51;;;;;;;24.77;12.77;;;;;;;;;;5050921;28;20037;-59
2022/03/15 10:13:17;;;;;;;25.52;11.90;;;;;;;;;;5051265;28;20442;-59
2022/03/15 10:15:51;;;;;;;25.10;12.50;;;;;;;;;;5053218;28;20037;-59
2022/03/15 10:18:18;;;;;;;20.13;12.00;;;;;;;;;;5059912;28;20051;-59
2022/03/15 10:20:44;;;;;;;22.00;11.40;;;;;;;;;;5061049;28;20602;-59
2022/03/15 10:23:10;;;;;;;26.98;12.65;;;;;;;;;;5064240;28;20047;-59
2022/03/15 10:25:37;;;;;;;32.70;14.32;;;;;;;;;;5061988;28;20037;-58
2022/03/15 10:28:06;;;;;;;23.83;13.15;;;;;;;;;;5059258;28;20025;-59
2022/03/15 10:30:32;;;;;;;34.08;14.35;;;;;;;;;;5052004;28;20055;-59
2022/03/15 10:32:58;;;;;;;22.25;12.57;;;;;;;;;;5056935;28;20025;-58
2022/03/15 10:35:31;;;;;;;28.08;12.25;;;;;;;;;;5051867;28;20025;-59
2022/03/15 10:37:57;;;;;;;7.80;4.80;;;;;;;;;;5054621;28;20404;-58
2022/03/15 10:40:44;;;;;;;8.57;5.35;;;;;;;;;;5053830;28;20553;-58
2022/03/15 10:43:20;;;;;;;10.25;5.72;;;;;;;;;;5059336;28;20028;-59
2022/03/15 10:45:50;;;;;;;4.53;2.70;;;;;;;;;;5055154;28;20029;-59
2022/03/15 10:48:30;;;;;;;5.15;2.42;;;;;;;;;;5059347;28;20039;-59
2022/03/15 10:51:10;;;;;;;5.15;3.53;;;;;;;;;;5063479;28;20072;-58
2022/03/15 10:53:42;;;;;;;5.20;1.90;;;;;;;;;;5063637;28;20032;-59
2022/03/15 10:56:24;;;;;;;3.17;2.10;;;;;;;;;;5057129;28;20120;-58
2022/03/15 10:59:00;;;;;;;4.65;2.13;;;;;;;;;;5061443;28;20032;-59
2022/03/15 11:01:27;;;;;;;4.55;2.95;;;;;;;;;;5051021;28;20032;-59
2022/03/15 11:03:59;;;;;;;3.25;1.92;;;;;;;;;;5055515;28;20055;-59
2022/03/15 11:06:40;;;;;;;2.28;1.40;;;;;;;;;;5054002;28;20029;-58
2022/03/15 11:09:18;;;;;;;2.22;1.75;;;;;;;;;;5058176;28;20036;-58
2022/03/15 11:11:47;;;;;;;1.65;1.55;;;;;;;;;;5052377;28;20488;-59
2022/03/15 11:14:13;;;;;;;3.58;2.08;;;;;;;;;;5051865;28;20106;-59
2022/03/15 11:16:41;;;;;;;3.10;1.70;;;;;;;;;;5054117;28;20028;-58
2022/03/15 11:19:07;;;;;;;5.32;2.58;;;;;;;;;;5055204;28;20399;-60
2022/03/15 11:21:33;;;;;;;3.75;1.40;;;;;;;;;;5061814;28;20038;-58
2022/03/15 11:24:00;;;;;;;3.65;1.60;;;;;;;;;;5055268;28;20024;-59
2022/03/15 11:26:30;;;;;;;3.22;1.90;;;;;;;;;;5046781;28;20040;-59
2022/03/15 11:28:57;;;;;;;2.08;1.70;;;;;;;;;;5058232;28;20032;-59
2022/03/15 11:31:23;;;;;;;4.43;2.05;;;;;;;;;;5048751;28;20089;-59
2022/03/15 11:33:50;;;;;;;3.30;2.47;;;;;;;;;;5060326;28;20032;-59
2022/03/15 11:36:17;;;;;;;3.55;2.00;;;;;;;;;;5047617;28;20059;-59
2022/03/15 11:38:43;;;;;;;3.60;1.77;;;;;;;;;;5049896;28;20436;-59
2022/03/15 11:41:10;;;;;;;2.13;1.92;;;;;;;;;;5055086;28;20120;-58
2022/03/15 11:44:09;;;;;;;2.95;1.90;;;;;;;;;;5056136;28;20025;-59
2022/03/15 11:46:46;;;;;;;4.85;2.20;;;;;;;;;;5057801;28;20167;-59
2022/03/15 11:49:15;;;;;;;3.83;2.53;;;;;;;;;;5054857;28;20274;-59
2022/03/15 11:51:56;;;;;;;6.25;4.03;;;;;;;;;;5060180;28;20295;-59
2022/03/15 11:54:53;;;;;;;5.88;3.53;;;;;;;;;;5057559;28;20041;-60
2022/03/15 11:57:27;;;;;;;13.40;7.10;;;;;;;;;;5046511;28;20068;-60
2022/03/15 11:59:53;;;;;;;7.72;3.40;;;;;;;;;;5056067;28;20049;-60
2022/03/15 12:02:49;;;;;;;3.38;3.00;;;;;;;;;;5059750;28;20036;-59
2022/03/15 12:05:18;;;;;;;2.95;1.92;;;;;;;;;;5050275;28;20461;-58
2022/03/15 12:07:46;;;;;;;3.45;2.13;;;;;;;;;;5061380;28;20171;-59
2022/03/15 12:10:23;;;;;;;5.15;3.03;;;;;;;;;;5056050;28;20127;-59
2022/03/15 12:13:00;;;;;;;4.05;3.00;;;;;;;;;;5061107;28;20559;-60
2022/03/15 12:15:38;;;;;;;5.22;3.33;;;;;;;;;;5059417;28;20094;-60
2022/03/15 12:18:23;;;;;;;5.75;3.20;;;;;;;;;;5059833;28;20033;-60
2022/03/15 12:21:04;;;;;;;3.75;2.83;;;;;;;;;;5064684;28;20109;-58
2022/03/15 12:23:48;;;;;;;4.57;3.40;;;;;;;;;;5058113;28;21433;-60
2022/03/15 12:26:18;;;;;;;6.40;2.88;;;;;;;;;;5056739;28;20024;-59
2022/03/15 12:29:03;;;;;;;6.35;3.03;;;;;;;;;;5066396;28;20502;-60
2022/03/15 12:31:45;;;;;;;4.63;3.03;;;;;;;;;;5058139;28;20032;-59
2022/03/15 12:34:15;;;;;;;4.40;2.80;;;;;;;;;;5064902;28;20062;-60
2022/03/15 12:36:49;;;;;;;6.22;2.90;;;;;;;;;;5063613;28;20448;-60
2022/03/15 12:39:17;;;;;;;5.82;3.03;;;;;;;;;;5058641;28;20410;-59
2022/03/15 12:41:45;;;;;;;4.30;2.92;;;;;;;;;;5056723;28;20109;-60
2022/03/15 12:44:11;;;;;;;3.90;2.72;;;;;;;;;;5059986;28;20055;-59
2022/03/15 12:46:41;;;;;;;7.35;3.83;;;;;;;;;;5055927;28;20013;-60
2022/03/15 12:49:15;;;;;;;6.20;3.05;;;;;;;;;;5061700;28;20032;-60
2022/03/15 12:51:44;;;;;;;5.63;2.90;;;;;;;;;;5063294;28;20032;-60
2022/03/15 12:54:11;;;;;;;5.57;2.90;;;;;;;;;;5060079;28;20024;-60
2022/03/15 12:56:48;;;;;;;5.68;3.30;;;;;;;;;;5062586;28;20119;-60
2022/03/15 12:59:23;;;;;;;4.55;2.80;;;;;;;;;;5054721;28;20507;-60
2022/03/15 13:01:50;;;;;;;5.00;2.90;;;;;;;;;;5059792;28;20090;-58
2022/03/15 13:04:16;;;;;;;7.13;3.10;;;;;;;;;;5060815;28;20082;-59
2022/03/15 13:06:44;;;;;;;5.43;3.17;;;;;;;;;;5056887;28;20767;-59
2022/03/15 13:09:09;;;;;;;4.90;3.58;;;;;;;;;;5061969;28;20028;-60
2022/03/15 13:11:45;;;;;;;4.65;3.10;;;;;;;;;;5064264;28;20071;-59
2022/03/15 13:14:12;;;;;;;4.65;3.38;;;;;;;;;;5065699;28;20036;-59
2022/03/15 13:16:44;;;;;;;7.82;3.53;;;;;;;;;;5057295;28;20067;-59
2022/03/15 13:19:10;;;;;;;5.65;3.45;;;;;;;;;;5059954;28;20111;-60
2022/03/15 13:21:38;;;;;;;9.35;4.15;;;;;;;;;;5058023;28;20056;-59
2022/03/15 13:24:08;;;;;;;4.13;2.70;;;;;;;;;;5063593;28;20822;-61
2022/03/15 13:26:34;;;;;;;7.95;3.40;;;;;;;;;;5065103;28;20438;-60
2022/03/15 13:29:00;;;;;;;6.70;3.17;;;;;;;;;;5060528;28;20040;-59
2022/03/15 13:31:26;;;;;;;11.80;4.35;;;;;;;;;;5057984;28;20086;-57
2022/03/15 13:34:00;;;;;;;10.68;3.90;;;;;;;;;;5058926;28;20031;-57
2022/03/15 13:36:34;;;;;;;9.30;3.65;;;;;;;;;;5060151;28;20036;-56
2022/03/15 13:39:07;;;;;;;5.15;3.20;;;;;;;;;;5065831;28;20040;-58
2022/03/15 13:41:44;;;;;;;6.22;3.10;;;;;;;;;;5059161;28;20040;-57
2022/03/15 13:44:15;;;;;;;5.75;3.10;;;;;;;;;;5062845;28;20024;-56
2022/03/15 13:46:41;;;;;;;8.43;3.20;;;;;;;;;;5063000;28;20558;-57
2022/03/15 13:49:07;;;;;;;5.70;3.45;;;;;;;;;;5055554;28;20036;-56
2022/03/15 13:51:39;;;;;;;6.38;3.75;;;;;;;;;;5053482;28;20029;-57
2022/03/15 13:54:12;;;;;;;6.38;3.53;;;;;;;;;;5055422;28;20028;-58
2022/03/15 13:56:52;;;;;;;7.65;3.22;;;;;;;;;;5053476;28;20040;-57
2022/03/15 13:59:22;;;;;;;;;;;;;;;;;;5053816;28;20061;-56
2022/03/15 14:02:05;;;;;;;10.70;3.38;;;;;;;;;;5057443;28;20287;-58
2022/03/15 14:04:34;;;;;;;7.82;2.65;;;;;;;;;;5062010;28;20511;-59
2022/03/15 14:07:01;;;;;;;4.40;2.00;;;;;;;;;;5060458;28;20032;-59
2022/03/15 14:09:29;;;;;;;8.55;2.35;;;;;;;;;;5053565;28;20046;-58
2022/03/15 14:12:21;;;;;;;9.98;2.42;;;;;;;;;;5052775;28;20105;-59
2022/03/15 14:14:52;;;;;;;7.82;3.10;;;;;;;;;;5057444;28;20032;-59
2022/03/15 14:17:20;;;;;;;8.35;3.03;;;;;;;;;;5059148;28;20070;-58
2022/03/15 14:19:51;;;;;;;12.82;2.70;;;;;;;;;;5055334;28;20024;-58
2022/03/15 14:22:24;;;;;;;8.63;2.50;;;;;;;;;;5060159;28;20078;-59
2022/03/15 14:24:57;;;;;;;9.80;2.95;;;;;;;;;;5058576;28;20060;-59
2022/03/15 14:27:27;;;;;;;9.68;2.47;;;;;;;;;;5052706;28;20058;-59
2022/03/15 14:29:54;;;;;;;;;;;;;;;;;;5052654;28;20636;-59
2022/03/15 14:32:20;;;;;;;5.03;2.78;;;;;;;;;;5062076;28;19974;-59
2022/03/15 14:35:07;;;;;;;9.90;2.90;;;;;;;;;;5056165;28;20032;-58
2022/03/15 14:37:35;;;;;;;10.52;2.70;;;;;;;;;;5057042;28;20029;-59